KPWK/PWK METAR and TAF weather

Enter ICAO airport designator
Station Type Date Time Source
KPWK METAR 2021/10/20 05:52 UTC NOAA

KPWK 200552Z AUTO 19004KT 10SM CLR 14/07 A3008 RMK AO2 SLP183 T01390072 10194 20128 402280083 58000


Station Type Date Time Source
KPWK Decoded METAR 2021/10/20 05:52 UTC NOAA

CHICAGO EXECUTIVE AIRPORT, IL, United States (KPWK) 42-07N 087-54W 203M
Oct 20, 2021 - 01:52 AM EDT / 2021.10.20 0552 UTC
Wind: from the S (190 degrees) at 5 MPH (4 KT):0
Visibility: 10 mile(s):0
Sky conditions: clear
Temperature: 57.0 F (13.9 C)
Dew Point: 45.0 F (7.2 C)
Relative Humidity: 63%
Pressure (altimeter): 30.08 in. Hg (1018 hPa)
Pressure tendency: 0.00 inches (0.0 hPa) lower than three hours ago
ob: KPWK 200552Z AUTO 19004KT 10SM CLR 14/07 A3008 RMK AO2 SLP183 T01390072 10194 20128 402280083 58000
cycle: 6

Station Type Date Time Source
KPWK TAF UTC NOAA

Error!

Example: see airport list